Time;durP1;ratioP1;P1;durP2;ratioP2;P2;SDS_P1;SDS_P2;PMS_P1;PMS_P2;Temp;Humidity;BMP_temperature;BMP_pressure;BME280_temperature;BME280_humidity;BME280_pressure;Samples;Min_cycle;Max_cycle;Signal;HPM_P1;HPM_P2
2022/03/04 00:02:10;;;;;;;24.10;12.50;;;3.80;35.30;;;;;;4971477;28;20556;-75
2022/03/04 00:04:37;;;;;;;26.77;13.88;;;3.80;35.40;;;;;;4956539;28;20062;-74
2022/03/04 00:07:07;;;;;;;26.02;13.85;;;3.80;35.60;;;;;;4956560;28;20024;-75
2022/03/04 00:09:33;;;;;;;28.75;14.23;;;3.70;35.70;;;;;;4956587;28;20035;-75
2022/03/04 00:12:03;;;;;;;29.65;13.82;;;3.70;35.70;;;;;;4956493;28;20043;-75
2022/03/04 00:14:29;;;;;;;24.80;13.38;;;3.70;36.00;;;;;;4950814;28;20031;-75
2022/03/04 00:16:55;;;;;;;31.65;14.65;;;3.70;36.10;;;;;;4937304;29;20032;-74
2022/03/04 00:19:21;;;;;;;25.52;13.60;;;3.60;36.20;;;;;;4949652;28;20606;-75
2022/03/04 00:21:49;;;;;;;27.15;13.45;;;3.50;36.40;;;;;;4956284;28;20027;-74
2022/03/04 00:24:16;;;;;;;29.73;14.57;;;3.50;36.50;;;;;;4956264;28;20162;-74
2022/03/04 00:26:43;;;;;;;28.23;13.48;;;3.50;36.50;;;;;;4956261;28;20518;-74
2022/03/04 00:29:11;;;;;;;29.02;14.38;;;3.50;36.70;;;;;;4956117;28;20074;-74
2022/03/04 00:31:37;;;;;;;26.17;13.55;;;3.40;36.60;;;;;;4970988;28;20030;-74
2022/03/04 00:34:07;;;;;;;28.27;13.88;;;3.40;36.60;;;;;;4955923;28;20019;-74
2022/03/04 00:36:38;;;;;;;29.00;14.57;;;3.40;36.70;;;;;;4955935;28;20172;-75
2022/03/04 00:39:12;;;;;;;27.90;14.27;;;3.40;36.70;;;;;;4970831;28;20019;-74
2022/03/04 00:41:39;;;;;;;32.63;13.90;;;3.30;36.70;;;;;;4956255;28;20028;-75
2022/03/04 00:44:06;;;;;;;27.85;14.00;;;3.30;36.70;;;;;;4954535;28;20392;-74
2022/03/04 00:46:32;;;;;;;32.05;15.05;;;3.30;36.90;;;;;;4955799;28;20093;-75
2022/03/04 00:48:58;;;;;;;30.02;14.25;;;3.30;37.00;;;;;;4970620;28;20477;-74
2022/03/04 00:51:23;;;;;;;31.35;14.40;;;3.30;37.90;;;;;;4970619;28;20028;-75
2022/03/04 00:53:49;;;;;;;29.40;13.88;;;3.20;37.30;;;;;;4955734;28;20027;-75
2022/03/04 00:56:15;;;;;;;31.88;15.27;;;3.20;37.40;;;;;;4955676;28;20027;-74
2022/03/04 00:58:41;;;;;;;30.13;13.75;;;3.20;37.40;;;;;;4953692;28;20058;-74
2022/03/04 01:01:07;;;;;;;27.77;13.73;;;3.10;37.40;;;;;;4954013;28;20042;-75
2022/03/04 01:03:34;;;;;;;27.33;14.00;;;3.20;37.40;;;;;;4955170;28;20090;-74
2022/03/04 01:06:00;;;;;;;31.65;13.65;;;3.10;37.40;;;;;;4953799;28;20054;-75
2022/03/04 01:08:26;;;;;;;27.30;13.73;;;3.10;37.30;;;;;;4939092;29;20473;-74
2022/03/04 01:10:53;;;;;;;30.38;14.75;;;3.10;37.40;;;;;;4939970;28;20049;-75
2022/03/04 01:13:19;;;;;;;31.00;13.98;;;3.00;37.50;;;;;;4955527;28;20035;-75
2022/03/04 01:15:45;;;;;;;30.15;14.35;;;3.00;37.50;;;;;;4955441;28;20034;-74
2022/03/04 01:18:11;;;;;;;34.78;15.95;;;3.00;37.50;;;;;;4954509;28;20031;-75
2022/03/04 01:20:37;;;;;;;34.67;15.48;;;3.00;37.70;;;;;;4955309;28;20042;-74
2022/03/04 01:23:03;;;;;;;27.20;13.57;;;3.00;37.60;;;;;;4969930;28;20062;-74
2022/03/04 01:25:30;;;;;;;30.85;14.52;;;2.90;37.80;;;;;;4937890;28;20078;-75
2022/03/04 01:27:56;;;;;;;30.52;14.95;;;2.90;38.00;;;;;;4935874;29;20028;-74
2022/03/04 01:30:21;;;;;;;31.33;15.52;;;2.90;38.40;;;;;;4935931;29;20478;-74
2022/03/04 01:32:47;;;;;;;34.70;16.35;;;2.90;38.50;;;;;;4945018;29;20034;-75
2022/03/04 01:35:13;;;;;;;27.17;14.18;;;2.90;38.50;;;;;;4954147;28;20023;-75
2022/03/04 01:37:40;;;;;;;31.15;14.98;;;2.90;38.50;;;;;;4954624;28;20412;-75
2022/03/04 01:40:08;;;;;;;32.03;15.82;;;2.90;38.60;;;;;;4954862;28;20031;-75
2022/03/04 01:42:35;;;;;;;30.08;14.40;;;2.80;38.60;;;;;;4969781;28;20037;-75
2022/03/04 01:45:01;;;;;;;30.55;15.00;;;2.90;38.60;;;;;;4954735;28;20038;-75
2022/03/04 01:47:27;;;;;;;31.17;15.27;;;2.80;38.80;;;;;;4936072;29;20147;-74
2022/03/04 01:49:53;;;;;;;27.20;14.32;;;2.80;38.80;;;;;;4935769;29;20055;-75
2022/03/04 01:52:20;;;;;;;26.17;13.23;;;2.80;38.90;;;;;;4935754;29;20032;-75
2022/03/04 01:54:46;;;;;;;30.58;15.45;;;2.80;38.90;;;;;;4953913;28;20035;-75
2022/03/04 01:57:12;;;;;;;27.17;14.50;;;2.80;39.30;;;;;;4953151;28;20043;-75
2022/03/04 01:59:38;;;;;;;35.53;14.52;;;2.80;39.40;;;;;;4954574;28;20382;-75
2022/03/04 02:02:04;;;;;;;33.33;15.52;;;2.70;39.30;;;;;;4969564;28;20441;-75
2022/03/04 02:04:30;;;;;;;30.67;14.25;;;2.70;39.60;;;;;;4954586;28;20027;-74
2022/03/04 02:06:56;;;;;;;34.67;15.50;;;2.70;39.60;;;;;;4954523;28;20091;-74
2022/03/04 02:09:25;;;;;;;30.77;14.98;;;2.70;39.70;;;;;;4954571;28;20504;-74
2022/03/04 02:11:51;;;;;;;29.63;14.63;;;2.70;39.80;;;;;;4954579;28;20055;-75
2022/03/04 02:14:17;;;;;;;33.13;15.32;;;2.70;40.00;;;;;;4954555;28;20051;-74
2022/03/04 02:16:48;;;;;;;29.45;14.57;;;2.70;40.00;;;;;;4953952;28;20032;-74
2022/03/04 02:19:14;;;;;;;29.30;13.15;;;2.70;39.80;;;;;;4954539;28;20086;-74
2022/03/04 02:22:00;;;;;;;24.35;11.80;;;2.70;39.80;;;;;;4954513;28;20425;-74
2022/03/04 02:24:28;;;;;;;28.08;13.18;;;2.60;39.90;;;;;;4954249;28;20047;-74
2022/03/04 02:26:56;;;;;;;31.50;14.88;;;2.60;39.90;;;;;;4954118;28;20500;-74
2022/03/04 02:29:22;;;;;;;31.33;14.68;;;2.60;39.90;;;;;;4954364;28;20027;-74
2022/03/04 02:31:49;;;;;;;29.98;14.80;;;2.60;39.90;;;;;;4954082;28;20024;-74
2022/03/04 02:34:15;;;;;;;32.15;14.30;;;2.60;40.10;;;;;;4954502;28;20026;-75
2022/03/04 02:36:42;;;;;;;29.08;14.23;;;2.60;40.00;;;;;;4954184;28;20031;-75
2022/03/04 02:39:08;;;;;;;27.50;14.95;;;2.60;40.10;;;;;;4969288;28;20023;-74
2022/03/04 02:41:35;;;;;;;28.98;15.05;;;2.60;40.40;;;;;;4954459;28;20039;-75
2022/03/04 02:44:05;;;;;;;24.45;13.32;;;2.60;40.50;;;;;;4954294;28;20162;-74
2022/03/04 02:46:32;;;;;;;30.27;14.98;;;2.50;40.50;;;;;;4954169;28;20031;-74
2022/03/04 02:48:58;;;;;;;29.63;14.80;;;2.50;40.60;;;;;;4954097;28;20019;-75
2022/03/04 02:51:24;;;;;;;26.58;14.30;;;2.50;40.60;;;;;;4954365;28;20037;-74
2022/03/04 02:53:49;;;;;;;28.08;14.20;;;2.50;40.70;;;;;;4954341;28;20362;-75
2022/03/04 02:56:16;;;;;;;32.92;14.35;;;2.50;40.80;;;;;;4954030;28;20042;-74
2022/03/04 02:58:41;;;;;;;33.75;17.50;;;2.50;41.10;;;;;;4954049;28;20409;-74
2022/03/04 03:01:08;;;;;;;36.83;16.77;;;2.50;41.70;;;;;;4969099;28;20031;-74
2022/03/04 03:03:34;;;;;;;24.98;13.65;;;2.40;41.80;;;;;;4954170;28;20019;-74
2022/03/04 03:06:00;;;;;;;32.75;13.68;;;2.40;41.50;;;;;;4954055;28;20427;-75
2022/03/04 03:08:28;;;;;;;28.65;15.77;;;2.40;41.30;;;;;;4954460;28;20030;-75
2022/03/04 03:10:54;;;;;;;32.28;15.48;;;2.40;41.40;;;;;;4954860;28;20053;-74
2022/03/04 03:13:20;;;;;;;29.05;13.30;;;2.40;41.40;;;;;;4954232;28;20074;-75
2022/03/04 03:15:46;;;;;;;29.95;15.85;;;2.40;41.30;;;;;;4953828;28;20497;-75
2022/03/04 03:18:11;;;;;;;28.48;14.40;;;2.40;41.40;;;;;;4954132;28;20103;-74
2022/03/04 03:20:37;;;;;;;31.30;15.55;;;2.40;41.30;;;;;;4954058;28;20069;-75
2022/03/04 03:23:03;;;;;;;32.53;15.75;;;2.40;41.40;;;;;;4953848;28;20027;-74
2022/03/04 03:25:29;;;;;;;32.47;15.20;;;2.30;41.60;;;;;;4953949;28;20027;-75
2022/03/04 03:27:56;;;;;;;31.60;15.43;;;2.40;41.90;;;;;;4953879;28;20028;-75
2022/03/04 03:30:21;;;;;;;32.45;14.95;;;2.30;41.90;;;;;;4956163;28;20497;-74
2022/03/04 03:32:48;;;;;;;30.52;14.10;;;2.30;41.90;;;;;;4957374;28;20046;-74
2022/03/04 03:35:13;;;;;;;35.00;15.77;;;2.30;41.90;;;;;;4955844;28;20105;-75
2022/03/04 03:37:39;;;;;;;31.08;15.98;;;2.30;42.10;;;;;;4971885;28;20079;-74
2022/03/04 03:40:08;;;;;;;30.95;15.13;;;2.30;42.80;;;;;;4957212;28;20425;-74
2022/03/04 03:42:35;;;;;;;31.65;14.80;;;2.30;43.00;;;;;;4957147;28;20023;-74
2022/03/04 03:45:02;;;;;;;31.13;15.85;;;2.30;43.20;;;;;;4956828;28;20035;-75
2022/03/04 03:47:28;;;;;;;28.50;14.85;;;2.30;43.40;;;;;;4957218;28;20045;-74
2022/03/04 03:49:54;;;;;;;27.67;13.35;;;2.30;43.40;;;;;;4957000;28;20497;-74
2022/03/04 03:52:19;;;;;;;32.95;15.88;;;2.30;43.10;;;;;;4957069;28;20074;-75
2022/03/04 03:54:45;;;;;;;31.27;14.50;;;2.30;43.30;;;;;;4956684;28;20501;-75
2022/03/04 03:57:11;;;;;;;32.13;14.45;;;2.30;43.30;;;;;;4956736;28;20051;-74
2022/03/04 03:59:38;;;;;;;30.05;15.10;;;2.30;43.30;;;;;;4955660;28;20504;-75
2022/03/04 04:02:04;;;;;;;31.25;15.68;;;2.30;43.30;;;;;;4956845;28;20034;-74
2022/03/04 04:04:34;;;;;;;34.00;15.70;;;2.30;43.30;;;;;;4956468;28;20054;-75
2022/03/04 04:07:08;;;;;;;40.13;14.27;;;2.20;43.30;;;;;;4956829;28;20027;-75
2022/03/04 04:09:34;;;;;;;31.73;15.45;;;2.20;43.30;;;;;;4971716;28;20031;-74
2022/03/04 04:12:00;;;;;;;28.70;14.20;;;2.20;43.40;;;;;;4956781;28;20172;-75
2022/03/04 04:14:27;;;;;;;31.23;14.10;;;2.20;43.30;;;;;;4955245;28;20122;-75
2022/03/04 04:16:54;;;;;;;34.78;16.75;;;2.20;43.40;;;;;;4956733;28;20475;-74
2022/03/04 04:19:21;;;;;;;33.45;16.00;;;2.20;43.60;;;;;;4956561;28;20031;-74
2022/03/04 04:21:47;;;;;;;30.75;14.90;;;2.20;43.70;;;;;;4971351;28;20402;-72
2022/03/04 04:24:13;;;;;;;38.15;17.10;;;2.20;43.80;;;;;;4955958;28;20023;-74
2022/03/04 04:26:39;;;;;;;38.90;17.73;;;2.20;44.10;;;;;;4956474;28;20470;-75
2022/03/04 04:29:05;;;;;;;31.60;16.77;;;2.20;44.50;;;;;;4955834;28;20062;-75
2022/03/04 04:31:32;;;;;;;36.30;17.15;;;2.20;44.40;;;;;;4956333;28;20027;-74
2022/03/04 04:33:59;;;;;;;32.35;16.40;;;2.20;44.30;;;;;;4956187;28;20026;-72
2022/03/04 04:36:26;;;;;;;32.72;17.20;;;2.20;44.10;;;;;;4955970;28;20027;-74
2022/03/04 04:38:52;;;;;;;33.83;15.18;;;2.20;44.00;;;;;;4956231;28;20414;-75
2022/03/04 04:41:18;;;;;;;32.58;15.82;;;2.10;43.90;;;;;;4955819;28;20031;-74
2022/03/04 04:43:44;;;;;;;32.45;17.02;;;2.20;44.00;;;;;;4956064;28;20098;-75
2022/03/04 04:46:10;;;;;;;29.63;14.70;;;2.10;44.00;;;;;;4955727;28;20023;-75
2022/03/04 04:48:37;;;;;;;30.10;15.35;;;2.10;44.00;;;;;;4956040;28;20027;-75
2022/03/04 04:51:04;;;;;;;34.13;16.90;;;2.10;43.90;;;;;;4955800;28;20019;-72
2022/03/04 04:53:30;;;;;;;36.53;17.48;;;2.10;44.00;;;;;;4955831;28;20041;-74
2022/03/04 04:55:56;;;;;;;32.70;15.75;;;2.10;44.20;;;;;;4970617;28;20035;-74
2022/03/04 04:58:22;;;;;;;37.58;16.75;;;2.10;44.10;;;;;;4955378;28;20058;-75
2022/03/04 05:00:53;;;;;;;38.47;17.98;;;2.10;44.00;;;;;;4955777;28;20034;-72
2022/03/04 05:03:23;;;;;;;33.60;15.82;;;2.10;44.10;;;;;;4955588;28;20051;-75
2022/03/04 05:05:49;;;;;;;40.97;17.65;;;2.10;44.00;;;;;;4970516;28;20019;-75
2022/03/04 05:08:16;;;;;;;28.88;15.88;;;2.10;44.20;;;;;;4970439;28;20544;-74
2022/03/04 05:10:43;;;;;;;38.72;16.27;;;2.10;44.20;;;;;;4955434;28;20491;-74
2022/03/04 05:13:09;;;;;;;30.20;14.95;;;2.10;44.30;;;;;;4955466;28;20058;-75
2022/03/04 05:15:35;;;;;;;37.85;16.13;;;2.00;44.10;;;;;;4955236;28;20120;-75
2022/03/04 05:18:01;;;;;;;34.78;15.52;;;2.10;44.20;;;;;;4955256;28;20046;-75
2022/03/04 05:20:27;;;;;;;38.00;16.95;;;2.00;44.10;;;;;;4955318;28;20019;-74
2022/03/04 05:22:52;;;;;;;46.38;18.20;;;2.10;44.40;;;;;;4969786;28;20065;-75
2022/03/04 05:25:18;;;;;;;35.85;17.88;;;2.00;45.10;;;;;;4969991;28;20453;-75
2022/03/04 05:27:45;;;;;;;54.40;20.88;;;2.10;45.80;;;;;;4955095;28;20078;-75
2022/03/04 05:30:11;;;;;;;40.25;19.02;;;2.10;46.40;;;;;;4955070;28;20358;-74
2022/03/04 05:32:37;;;;;;;38.95;19.02;;;2.10;46.60;;;;;;4955207;28;20033;-74
2022/03/04 05:35:04;;;;;;;50.65;19.33;;;2.10;46.50;;;;;;4954827;28;20081;-74
2022/03/04 05:37:30;;;;;;;38.40;18.55;;;2.20;46.40;;;;;;4950753;28;20019;-75
2022/03/04 05:39:56;;;;;;;42.20;18.95;;;2.20;46.40;;;;;;4953418;28;20037;-74
2022/03/04 05:42:22;;;;;;;36.35;17.63;;;2.20;46.40;;;;;;4954983;28;20106;-72
2022/03/04 05:44:48;;;;;;;46.60;18.02;;;2.20;46.30;;;;;;4954563;28;20062;-72
2022/03/04 05:47:13;;;;;;;40.72;19.42;;;2.30;46.10;;;;;;4954832;28;20031;-73
2022/03/04 05:49:39;;;;;;;36.55;18.05;;;2.30;46.20;;;;;;4953508;28;20031;-73
2022/03/04 05:52:06;;;;;;;47.00;20.83;;;2.30;45.90;;;;;;4954153;28;20027;-73
2022/03/04 05:54:32;;;;;;;42.33;17.85;;;2.30;46.00;;;;;;4954869;28;20019;-73
2022/03/04 05:56:58;;;;;;;39.60;17.38;;;2.30;45.90;;;;;;4954246;28;20051;-73
2022/03/04 05:59:24;;;;;;;35.83;18.65;;;2.30;45.80;;;;;;4954744;28;20046;-73
2022/03/04 06:01:50;;;;;;;36.13;16.20;;;2.30;45.90;;;;;;4954670;28;20031;-73
2022/03/04 06:04:17;;;;;;;37.92;16.95;;;2.30;45.60;;;;;;4953082;28;20027;-73
2022/03/04 06:06:43;;;;;;;43.33;19.30;;;2.30;45.50;;;;;;4954365;28;20047;-73
2022/03/04 06:09:09;;;;;;;36.95;17.85;;;2.30;45.90;;;;;;4969050;28;20465;-73
2022/03/04 06:11:34;;;;;;;35.22;17.55;;;2.40;45.90;;;;;;4954658;28;20090;-73
2022/03/04 06:14:00;;;;;;;42.17;17.45;;;2.40;45.80;;;;;;4969446;28;20038;-73
2022/03/04 06:16:26;;;;;;;45.63;19.92;;;2.40;45.80;;;;;;4954595;28;20050;-73
2022/03/04 06:18:53;;;;;;;49.30;20.60;;;2.40;46.00;;;;;;4969251;28;20448;-74
2022/03/04 06:21:18;;;;;;;50.60;21.23;;;2.50;46.20;;;;;;4954201;28;20425;-74
2022/03/04 06:23:44;;;;;;;47.70;21.65;;;2.50;46.60;;;;;;4954426;28;20110;-74
2022/03/04 06:26:11;;;;;;;42.92;20.77;;;2.50;46.70;;;;;;4954070;28;20030;-74
2022/03/04 06:28:37;;;;;;;50.63;22.75;;;2.60;46.90;;;;;;4954495;28;20104;-75
2022/03/04 06:31:03;;;;;;;45.47;21.10;;;2.70;47.00;;;;;;4954718;28;20020;-74
2022/03/04 06:33:32;;;;;;;42.17;20.60;;;2.70;47.20;;;;;;4953151;28;20024;-74
2022/03/04 06:36:18;;;;;;;43.72;20.58;;;2.80;47.30;;;;;;4954014;28;20043;-74
2022/03/04 06:38:45;;;;;;;38.75;18.25;;;2.90;47.40;;;;;;4954487;28;20110;-74
2022/03/04 06:41:13;;;;;;;45.42;20.80;;;3.00;47.10;;;;;;4954252;28;20020;-74
2022/03/04 06:43:39;;;;;;;43.85;19.98;;;3.00;46.90;;;;;;4969211;28;20059;-74
2022/03/04 06:46:06;;;;;;;41.50;19.38;;;3.10;46.80;;;;;;4954133;28;20421;-74
2022/03/04 06:48:33;;;;;;;37.13;17.80;;;3.10;46.40;;;;;;4935163;29;20409;-74
2022/03/04 06:50:59;;;;;;;40.83;18.23;;;3.20;46.30;;;;;;4935176;29;20034;-74
2022/03/04 06:53:25;;;;;;;42.40;19.10;;;3.30;46.30;;;;;;4935160;29;20454;-74
2022/03/04 06:55:52;;;;;;;39.80;19.00;;;3.30;46.40;;;;;;4969386;28;20385;-74
2022/03/04 06:58:19;;;;;;;41.50;19.50;;;3.40;46.50;;;;;;4953409;28;20047;-74
2022/03/04 07:00:45;;;;;;;40.80;19.90;;;3.50;46.50;;;;;;4953901;28;20099;-74
2022/03/04 07:03:11;;;;;;;40.95;19.63;;;3.60;46.30;;;;;;4969596;28;20486;-74
2022/03/04 07:05:38;;;;;;;40.05;20.50;;;3.60;46.60;;;;;;4957684;28;20495;-74
2022/03/04 07:08:11;;;;;;;37.95;20.33;;;3.70;46.90;;;;;;4957615;28;20023;-74
2022/03/04 07:10:40;;;;;;;45.47;19.63;;;3.80;46.90;;;;;;4957767;28;20504;-73
2022/03/04 07:13:06;;;;;;;35.42;18.60;;;3.80;46.60;;;;;;4956184;28;20035;-74
2022/03/04 07:15:32;;;;;;;37.72;18.27;;;3.90;46.50;;;;;;4972425;28;20054;-74
2022/03/04 07:17:58;;;;;;;41.53;18.17;;;4.00;46.20;;;;;;4957591;28;20030;-74
2022/03/04 07:20:24;;;;;;;36.53;19.27;;;4.10;46.20;;;;;;4957558;28;20031;-74
2022/03/04 07:22:49;;;;;;;100.18;23.83;;;4.20;46.00;;;;;;4957575;28;20031;-74
2022/03/04 07:25:16;;;;;;;41.47;20.55;;;4.20;46.20;;;;;;4957031;28;20039;-74
2022/03/04 07:27:42;;;;;;;34.78;19.25;;;4.30;46.40;;;;;;4957634;28;20083;-74
2022/03/04 07:30:11;;;;;;;41.63;20.27;;;4.30;46.30;;;;;;4956100;28;20023;-74
2022/03/04 07:32:38;;;;;;;37.63;19.75;;;4.40;46.20;;;;;;4956732;28;20548;-74
2022/03/04 07:35:04;;;;;;;42.75;18.80;;;4.50;45.90;;;;;;4957255;28;20035;-74
2022/03/04 07:37:30;;;;;;;35.63;19.17;;;4.60;45.50;;;;;;4956662;28;20067;-74
2022/03/04 07:39:56;;;;;;;40.15;18.98;;;4.70;45.20;;;;;;4957221;28;20066;-74
2022/03/04 07:42:22;;;;;;;38.13;18.98;;;4.80;45.00;;;;;;4957589;28;20188;-74
2022/03/04 07:44:49;;;;;;;29.70;16.88;;;4.90;45.00;;;;;;4955629;28;20448;-74
2022/03/04 07:47:15;;;;;;;39.30;18.95;;;4.90;44.90;;;;;;4956218;28;20041;-74
2022/03/04 07:49:42;;;;;;;36.30;18.45;;;5.00;44.90;;;;;;4958688;28;20023;-74
2022/03/04 07:52:09;;;;;;;44.45;19.65;;;5.10;44.90;;;;;;4957112;28;20066;-75
2022/03/04 07:54:36;;;;;;;34.75;18.67;;;5.20;44.90;;;;;;4957146;28;20536;-73
2022/03/04 07:57:02;;;;;;;37.38;16.95;;;5.30;44.80;;;;;;4956545;28;20047;-74
2022/03/04 07:59:27;;;;;;;46.83;19.42;;;5.30;44.60;;;;;;4956614;28;20417;-73
2022/03/04 08:01:53;;;;;;;36.42;17.95;;;5.40;44.60;;;;;;4956813;28;20020;-74
2022/03/04 08:04:19;;;;;;;35.10;17.70;;;5.50;44.80;;;;;;4956425;28;20089;-73
2022/03/04 08:06:45;;;;;;;38.00;18.67;;;5.60;44.70;;;;;;4956649;28;20019;-73
2022/03/04 08:09:11;;;;;;;34.10;18.25;;;5.60;44.80;;;;;;4956368;28;20392;-74
2022/03/04 08:11:37;;;;;;;33.47;17.67;;;5.70;45.00;;;;;;4956627;28;20027;-73
2022/03/04 08:14:03;;;;;;;37.80;19.08;;;5.80;44.90;;;;;;4956559;28;20032;-73
2022/03/04 08:16:33;;;;;;;40.25;18.13;;;5.90;44.60;;;;;;4970664;28;20027;-74
2022/03/04 08:19:03;;;;;;;44.80;22.17;;;6.00;44.40;;;;;;4956487;28;20481;-73
2022/03/04 08:21:29;;;;;;;45.08;19.02;;;6.10;44.50;;;;;;4970950;28;20031;-73
2022/03/04 08:23:54;;;;;;;42.63;19.65;;;6.10;44.30;;;;;;4956163;28;20083;-73
2022/03/04 08:26:20;;;;;;;37.70;19.42;;;6.20;44.20;;;;;;4956397;28;20062;-73
2022/03/04 08:28:47;;;;;;;40.08;21.20;;;6.30;44.20;;;;;;4956266;28;20066;-73
2022/03/04 08:31:13;;;;;;;37.53;18.30;;;6.40;44.10;;;;;;4956234;28;20023;-73
2022/03/04 08:33:41;;;;;;;34.25;16.92;;;6.40;43.90;;;;;;4955899;28;20023;-74
2022/03/04 08:36:07;;;;;;;49.83;19.10;;;6.50;43.90;;;;;;4955934;28;20437;-73
2022/03/04 08:38:34;;;;;;;37.90;18.77;;;6.60;44.00;;;;;;4956083;28;20046;-73
2022/03/04 08:41:00;;;;;;;43.58;20.08;;;6.60;43.90;;;;;;4970949;28;20043;-74
2022/03/04 08:43:25;;;;;;;32.28;17.30;;;6.70;43.90;;;;;;4954832;28;20035;-73
2022/03/04 08:45:52;;;;;;;35.10;17.88;;;6.80;43.80;;;;;;4946331;28;20422;-73
2022/03/04 08:48:18;;;;;;;38.20;18.02;;;6.90;43.60;;;;;;4955814;28;20031;-73
2022/03/04 08:50:44;;;;;;;39.03;19.30;;;6.90;43.30;;;;;;4956449;28;20054;-72
2022/03/04 08:53:09;;;;;;;41.63;19.13;;;7.00;43.10;;;;;;4971231;28;20086;-73
2022/03/04 08:55:36;;;;;;;37.05;18.00;;;7.00;42.90;;;;;;4971046;28;20035;-73
2022/03/04 08:58:02;;;;;;;35.35;19.85;;;7.10;42.80;;;;;;4970969;28;20055;-74
2022/03/04 09:00:28;;;;;;;38.13;18.45;;;7.10;42.70;;;;;;4970476;28;20506;-72
2022/03/04 09:02:55;;;;;;;46.15;21.42;;;7.20;42.70;;;;;;4955118;28;20028;-71
2022/03/04 09:05:21;;;;;;;38.35;19.90;;;7.30;42.50;;;;;;4956018;28;20027;-71
2022/03/04 09:07:47;;;;;;;41.70;20.05;;;7.30;42.40;;;;;;4955536;28;20030;-75
2022/03/04 09:10:13;;;;;;;34.70;18.63;;;7.30;42.20;;;;;;4945549;28;20478;-71
2022/03/04 09:12:39;;;;;;;48.13;22.38;;;7.40;42.10;;;;;;4955523;28;20023;-74
2022/03/04 09:15:07;;;;;;;41.58;21.27;;;7.30;42.00;;;;;;4956545;28;20023;-75
2022/03/04 09:17:33;;;;;;;42.78;21.23;;;7.30;42.00;;;;;;4954393;28;20023;-72
2022/03/04 09:19:59;;;;;;;38.33;20.23;;;7.30;42.00;;;;;;4950356;28;20039;-75
2022/03/04 09:22:25;;;;;;;38.95;20.98;;;7.30;41.80;;;;;;4957204;28;20071;-75
2022/03/04 09:24:51;;;;;;;33.83;18.23;;;7.40;41.90;;;;;;4953598;28;20086;-73
2022/03/04 09:27:18;;;;;;;40.00;20.38;;;7.40;41.90;;;;;;4953440;28;20050;-74
2022/03/04 09:29:43;;;;;;;38.75;20.20;;;7.40;41.80;;;;;;4966718;28;20019;-73
2022/03/04 09:32:09;;;;;;;43.00;21.23;;;7.50;41.70;;;;;;4952525;28;20058;-75
2022/03/04 09:34:35;;;;;;;44.10;20.60;;;7.50;41.60;;;;;;4960655;28;20019;-73
2022/03/04 09:37:01;;;;;;;39.88;20.52;;;7.50;41.50;;;;;;4942703;28;20434;-72
2022/03/04 09:39:26;;;;;;;38.72;19.98;;;7.50;41.50;;;;;;4947687;28;20035;-75
2022/03/04 09:41:53;;;;;;;37.05;21.02;;;7.50;41.50;;;;;;4946394;28;20023;-76
2022/03/04 09:44:18;;;;;;;45.72;22.63;;;7.60;41.40;;;;;;4947793;28;20070;-74
2022/03/04 09:46:44;;;;;;;41.92;21.85;;;7.60;41.30;;;;;;4952639;28;20050;-74
2022/03/04 09:49:14;;;;;;;43.63;22.02;;;7.60;41.10;;;;;;4953451;28;20035;-75
2022/03/04 09:51:39;;;;;;;35.55;20.40;;;7.70;41.00;;;;;;4951903;28;20019;-74
2022/03/04 09:54:05;;;;;;;38.17;20.00;;;7.70;40.90;;;;;;4954101;28;20094;-75
2022/03/04 09:56:31;;;;;;;39.50;20.75;;;7.70;40.80;;;;;;4964915;28;20035;-75
2022/03/04 09:58:57;;;;;;;41.60;21.33;;;7.80;40.80;;;;;;4953910;28;20043;-72
2022/03/04 10:01:23;;;;;;;43.67;21.40;;;7.80;40.80;;;;;;4951189;28;20039;-74
2022/03/04 10:03:51;;;;;;;38.92;21.30;;;7.90;40.90;;;;;;4951404;28;20019;-74
2022/03/04 10:06:18;;;;;;;40.22;19.90;;;8.00;41.00;;;;;;4952984;28;20023;-75
2022/03/04 10:08:47;;;;;;;34.40;19.98;;;8.00;41.00;;;;;;4954205;28;20011;-74
2022/03/04 10:11:23;;;;;;;43.30;20.77;;;8.10;40.70;;;;;;4953392;28;20047;-75
2022/03/04 10:13:50;;;;;;;34.17;19.45;;;8.20;40.50;;;;;;4951615;28;20035;-74
2022/03/04 10:16:32;;;;;;;39.72;19.10;;;8.30;40.30;;;;;;4957561;28;20035;-72
2022/03/04 10:19:10;;;;;;;39.05;19.20;;;8.40;40.10;;;;;;4950830;28;20385;-73
2022/03/04 10:21:57;;;;;;;36.63;19.38;;;8.50;40.00;;;;;;4946140;28;20028;-74
2022/03/04 10:24:38;;;;;;;36.03;19.70;;;8.50;39.70;;;;;;4955619;28;20031;-75
2022/03/04 10:27:12;;;;;;;37.33;20.20;;;8.60;39.60;;;;;;4945354;28;20102;-74
2022/03/04 10:29:43;;;;;;;42.65;22.23;;;8.60;39.40;;;;;;4953590;28;20087;-75
2022/03/04 10:32:13;;;;;;;38.72;20.23;;;8.60;39.00;;;;;;4952562;28;20026;-77
2022/03/04 10:34:55;;;;;;;38.88;19.23;;;8.70;38.70;;;;;;4953822;28;20035;-73
2022/03/04 10:37:42;;;;;;;35.75;18.98;;;8.70;38.80;;;;;;4952689;28;20070;-73
2022/03/04 10:40:16;;;;;;;37.55;20.05;;;8.70;38.70;;;;;;4957595;28;20031;-72
2022/03/04 10:42:45;;;;;;;40.13;21.25;;;8.70;38.70;;;;;;4957664;28;20031;-74
2022/03/04 10:45:22;;;;;;;42.20;21.55;;;8.70;38.90;;;;;;4948953;28;20027;-76
2022/03/04 10:47:50;;;;;;;35.97;19.58;;;8.70;38.70;;;;;;4941841;29;20019;-76
2022/03/04 10:50:18;;;;;;;34.25;19.02;;;8.70;38.60;;;;;;4957185;28;20027;-77
2022/03/04 10:52:49;;;;;;;37.10;20.40;;;8.80;38.70;;;;;;4957686;28;20446;-77
2022/03/04 10:55:29;;;;;;;41.47;20.48;;;8.90;38.50;;;;;;4957764;28;20098;-78
2022/03/04 10:57:56;;;;;;;39.63;20.05;;;8.90;38.40;;;;;;4956230;28;20357;-77
2022/03/04 11:00:37;;;;;;;39.22;19.70;;;8.90;38.30;;;;;;4957267;28;20027;-77
2022/03/04 11:03:05;;;;;;;37.03;20.15;;;9.00;38.10;;;;;;4972074;28;20042;-77
2022/03/04 11:05:31;;;;;;;42.58;20.33;;;9.10;38.10;;;;;;4971642;28;20055;-78
2022/03/04 11:07:58;;;;;;;39.85;20.60;;;9.10;38.00;;;;;;4971536;28;20418;-77
2022/03/04 11:10:25;;;;;;;39.40;19.45;;;9.20;37.70;;;;;;4957255;28;20031;-77
2022/03/04 11:12:53;;;;;;;38.55;19.35;;;9.20;37.50;;;;;;4954603;28;20098;-76
2022/03/04 11:15:22;;;;;;;34.63;17.85;;;9.30;37.30;;;;;;4970944;28;20485;-76
2022/03/04 11:17:48;;;;;;;38.67;19.88;;;9.40;37.50;;;;;;4981052;28;20030;-77
2022/03/04 11:20:15;;;;;;;34.15;18.92;;;9.50;37.40;;;;;;4957147;28;20058;-76
2022/03/04 11:22:43;;;;;;;34.65;19.23;;;9.60;37.30;;;;;;4957032;28;20527;-78
2022/03/04 11:25:12;;;;;;;38.45;19.02;;;9.80;37.20;;;;;;4966111;28;20436;-76
2022/03/04 11:27:44;;;;;;;33.38;19.02;;;9.90;37.20;;;;;;4956777;28;20015;-77
2022/03/04 11:30:37;;;;;;;29.45;17.45;;;10.20;36.70;;;;;;4956959;28;20078;-77
2022/03/04 11:33:07;;;;;;;42.95;20.52;;;10.50;36.70;;;;;;4940934;28;20031;-76
2022/03/04 11:35:50;;;;;;;32.15;17.92;;;10.70;36.00;;;;;;4953674;28;20058;-77
2022/03/04 11:38:16;;;;;;;37.60;19.38;;;11.00;35.50;;;;;;4960849;28;20098;-76
2022/03/04 11:40:51;;;;;;;34.08;18.55;;;11.20;35.00;;;;;;4948893;28;20051;-77
2022/03/04 11:43:18;;;;;;;34.75;19.05;;;11.30;34.80;;;;;;4937129;29;20084;-79
2022/03/04 11:45:44;;;;;;;32.50;18.25;;;11.50;34.60;;;;;;4953899;28;20113;-78
2022/03/04 11:48:13;;;;;;;34.78;18.15;;;11.60;34.70;;;;;;4956528;28;20032;-78
2022/03/04 11:50:45;;;;;;;38.60;19.70;;;11.70;34.00;;;;;;4955230;28;20030;-77
2022/03/04 11:53:25;;;;;;;31.67;17.10;;;11.70;33.60;;;;;;4956376;28;20023;-77
2022/03/04 11:56:12;;;;;;;33.35;18.35;;;11.70;33.70;;;;;;4955924;28;20450;-79
2022/03/04 11:58:58;;;;;;;39.28;19.15;;;11.70;33.40;;;;;;4938627;28;20078;-79
2022/03/04 12:01:27;;;;;;;40.90;20.23;;;11.60;32.90;;;;;;4955878;28;20031;-78
2022/03/04 12:04:08;;;;;;;34.15;18.63;;;11.50;32.60;;;;;;4970752;28;20019;-78
2022/03/04 12:06:34;;;;;;;33.90;18.50;;;11.40;32.60;;;;;;4955895;28;20030;-78
2022/03/04 12:09:29;;;;;;;38.30;19.15;;;11.30;32.70;;;;;;4954156;28;20066;-77
2022/03/04 12:12:18;;;;;;;30.30;17.08;;;11.20;33.00;;;;;;4970527;28;20055;-77
2022/03/04 12:14:49;;;;;;;40.90;19.70;;;11.10;33.40;;;;;;4942745;28;20366;-77
2022/03/04 12:17:17;;;;;;;42.35;20.60;;;11.00;33.10;;;;;;4954978;28;20045;-77
2022/03/04 12:19:43;;;;;;;30.38;17.35;;;11.00;33.00;;;;;;4966759;28;20058;-77
2022/03/04 12:22:14;;;;;;;30.08;16.88;;;10.90;33.20;;;;;;4975213;28;20389;-78
2022/03/04 12:25:02;;;;;;;31.55;17.23;;;10.90;33.20;;;;;;4941794;28;20038;-77
2022/03/04 12:27:39;;;;;;;28.90;15.15;;;10.80;33.20;;;;;;4967465;28;20020;-78
2022/03/04 12:30:23;;;;;;;25.08;14.23;;;10.80;33.50;;;;;;4950921;28;20402;-77
2022/03/04 12:32:51;;;;;;;27.35;15.32;;;10.80;33.70;;;;;;4955526;28;20070;-76
2022/03/04 12:35:18;;;;;;;32.70;16.70;;;10.80;33.80;;;;;;4947661;28;20028;-77
2022/03/04 12:37:44;;;;;;;30.33;16.40;;;10.80;33.60;;;;;;4936250;29;20055;-78
2022/03/04 12:40:11;;;;;;;26.83;14.82;;;10.80;33.50;;;;;;4967987;28;20436;-77